Time;durP1;ratioP1;P1;durP2;ratioP2;P2;SDS_P1;SDS_P2;PMS_P1;PMS_P2;Temp;Humidity;BMP_temperature;BMP_pressure;BME280_temperature;BME280_humidity;BME280_pressure;Samples;Min_cycle;Max_cycle;Signal;HPM_P1;HPM_P2
2021/04/10 00:02:12;;;;;;;4.55;2.20;;;12.30;33.90;;;;;;6195003;23;20179;-80
2021/04/10 00:04:39;;;;;;;3.85;1.52;;;12.30;35.60;;;;;;6193225;23;20207;-79
2021/04/10 00:07:06;;;;;;;7.82;2.28;;;12.30;35.80;;;;;;6190870;23;20270;-79
2021/04/10 00:09:32;;;;;;;2.75;1.83;;;12.30;36.20;;;;;;6185968;23;20578;-79
2021/04/10 00:11:59;;;;;;;2.75;2.28;;;12.20;36.50;;;;;;6185057;23;20183;-82
2021/04/10 00:14:27;;;;;;;4.05;1.95;;;12.30;36.50;;;;;;6183972;23;20254;-78
2021/04/10 00:16:53;;;;;;;3.25;2.00;;;12.30;36.50;;;;;;6184196;23;20195;-80
2021/04/10 00:19:20;;;;;;;5.55;2.40;;;12.30;36.60;;;;;;6184350;23;20231;-79
2021/04/10 00:21:46;;;;;;;2.70;1.83;;;12.30;38.30;;;;;;6186983;23;20190;-79
2021/04/10 00:24:14;;;;;;;3.58;1.95;;;12.30;37.00;;;;;;6184558;23;20215;-79
2021/04/10 00:26:40;;;;;;;4.53;2.00;;;12.30;36.90;;;;;;6186562;23;20759;-78
2021/04/10 00:29:07;;;;;;;3.42;2.30;;;12.30;38.20;;;;;;6184705;23;20218;-79
2021/04/10 00:31:34;;;;;;;3.47;2.00;;;12.40;36.70;;;;;;6191465;23;20255;-79
2021/04/10 00:34:01;;;;;;;3.67;1.80;;;12.50;36.20;;;;;;6210179;23;20168;-81
2021/04/10 00:36:27;;;;;;;2.17;1.77;;;12.60;36.90;;;;;;6185836;23;20195;-79
2021/04/10 00:38:54;;;;;;;4.47;1.90;;;12.50;36.10;;;;;;6186700;23;20253;-80
2021/04/10 00:41:20;;;;;;;4.03;1.90;;;12.60;36.30;;;;;;6187451;23;20183;-83
2021/04/10 00:43:47;;;;;;;2.83;2.00;;;12.50;37.40;;;;;;6188418;23;20179;-79
2021/04/10 00:46:13;;;;;;;4.03;2.20;;;12.50;37.20;;;;;;6187734;23;20195;-79
2021/04/10 00:48:40;;;;;;;2.97;2.15;;;12.50;37.60;;;;;;6188724;23;20284;-79
2021/04/10 00:51:07;;;;;;;2.95;1.80;;;12.50;39.30;;;;;;6185494;23;20179;-79
2021/04/10 00:53:35;;;;;;;1.77;1.67;;;12.40;39.50;;;;;;6187867;23;20704;-80
2021/04/10 00:56:04;;;;;;;7.15;1.92;;;12.20;40.80;;;;;;6189502;23;20227;-80
2021/04/10 00:58:31;;;;;;;3.60;2.15;;;12.10;41.50;;;;;;6187130;23;20745;-78
2021/04/10 01:00:57;;;;;;;2.95;1.95;;;11.90;41.30;;;;;;6185848;23;20183;-80
2021/04/10 01:03:24;;;;;;;2.28;1.63;;;11.90;43.20;;;;;;6187481;23;20521;-80
2021/04/10 01:05:51;;;;;;;1.90;1.48;;;11.80;43.90;;;;;;6198924;23;20251;-79
2021/04/10 01:08:17;;;;;;;2.00;1.80;;;11.70;43.20;;;;;;6199386;23;20203;-81
2021/04/10 01:10:44;;;;;;;3.25;1.88;;;11.70;44.80;;;;;;6199804;23;20175;-80
2021/04/10 01:13:25;;;;;;;2.63;2.22;;;11.60;45.90;;;;;;6205454;23;20202;-80
2021/04/10 01:16:00;;;;;;;3.95;1.80;;;11.50;46.00;;;;;;6192049;23;20183;-80
2021/04/10 01:18:33;;;;;;;4.60;2.00;;;11.40;49.00;;;;;;6195327;23;20210;-79
2021/04/10 01:21:08;;;;;;;4.43;2.15;;;11.40;48.10;;;;;;6191578;23;20240;-81
2021/04/10 01:24:10;;;;;;;2.60;2.13;;;11.50;48.30;;;;;;6200743;23;20170;-80
2021/04/10 01:27:17;;;;;;;2.13;1.92;;;11.40;49.00;;;;;;6207795;23;20202;-81
2021/04/10 01:29:48;;;;;;;5.70;2.30;;;11.40;49.90;;;;;;6208586;23;20199;-82
2021/04/10 01:32:14;;;;;;;5.13;2.00;;;11.40;50.50;;;;;;6210517;23;20162;-82
2021/04/10 01:34:44;;;;;;;2.42;2.08;;;11.40;50.50;;;;;;6209538;23;20179;-81
2021/04/10 01:37:14;;;;;;;1.83;1.63;;;11.40;49.90;;;;;;6210154;23;20232;-81
2021/04/10 01:39:42;;;;;;;1.70;1.60;;;11.50;49.60;;;;;;6209118;23;20194;-82
2021/04/10 01:42:12;;;;;;;3.17;2.05;;;11.50;49.00;;;;;;6191700;23;20456;-80
2021/04/10 01:44:40;;;;;;;2.15;1.95;;;11.50;49.00;;;;;;6188506;23;20258;-80
2021/04/10 01:47:12;;;;;;;2.13;1.92;;;11.50;48.90;;;;;;6187232;23;20231;-79
2021/04/10 01:49:39;;;;;;;3.58;2.00;;;11.60;48.10;;;;;;6182512;23;20230;-79
2021/04/10 01:52:07;;;;;;;4.03;2.28;;;11.60;48.20;;;;;;6183676;23;20205;-81
2021/04/10 01:54:35;;;;;;;2.22;1.90;;;11.60;47.40;;;;;;6191008;23;20207;-80
2021/04/10 01:57:02;;;;;;;3.70;2.25;;;11.70;47.80;;;;;;6195344;23;20343;-82
2021/04/10 01:59:30;;;;;;;2.70;1.50;;;11.70;48.00;;;;;;6209902;23;20219;-82
2021/04/10 02:01:57;;;;;;;4.43;1.70;;;11.70;46.30;;;;;;6202683;23;20176;-80
2021/04/10 02:04:25;;;;;;;2.75;1.70;;;11.70;46.30;;;;;;6196557;23;20547;-79
2021/04/10 02:06:52;;;;;;;3.08;1.95;;;11.80;46.10;;;;;;6190962;23;20226;-80
2021/04/10 02:09:21;;;;;;;3.15;2.28;;;11.80;46.30;;;;;;6190591;23;20242;-80
2021/04/10 02:11:50;;;;;;;3.33;1.63;;;11.80;46.30;;;;;;6187920;23;20180;-80
2021/04/10 02:14:18;;;;;;;2.95;2.13;;;11.80;46.50;;;;;;6191008;23;20183;-80
2021/04/10 02:16:45;;;;;;;2.58;1.92;;;11.80;45.90;;;;;;6185801;23;20237;-79
2021/04/10 02:19:11;;;;;;;3.15;1.88;;;11.80;45.30;;;;;;6185934;23;20214;-79
2021/04/10 02:21:39;;;;;;;3.60;1.85;;;11.80;45.30;;;;;;6189891;23;20215;-80
2021/04/10 02:24:06;;;;;;;2.42;1.65;;;11.90;45.10;;;;;;6192731;23;20179;-80
2021/04/10 02:26:33;;;;;;;2.35;2.00;;;11.90;44.90;;;;;;6187859;23;20199;-80
2021/04/10 02:29:00;;;;;;;3.40;2.00;;;11.90;44.70;;;;;;6188107;23;20206;-79
2021/04/10 02:31:30;;;;;;;2.30;1.75;;;11.90;44.80;;;;;;6185827;23;20182;-79
2021/04/10 02:34:02;;;;;;;1.38;1.27;;;11.90;43.90;;;;;;6197363;23;20272;-82
2021/04/10 02:36:30;;;;;;;3.42;1.80;;;11.90;43.80;;;;;;6203641;23;20172;-81
2021/04/10 02:38:58;;;;;;;3.22;1.60;;;11.90;43.90;;;;;;6188922;23;20227;-80
2021/04/10 02:41:25;;;;;;;1.98;1.70;;;11.90;43.70;;;;;;6192457;23;20183;-80
2021/04/10 02:43:55;;;;;;;2.08;1.75;;;12.00;43.90;;;;;;6196024;23;20187;-80
2021/04/10 02:46:26;;;;;;;6.25;1.88;;;11.90;44.00;;;;;;6193451;23;20205;-80
2021/04/10 02:48:59;;;;;;;1.67;1.50;;;11.90;44.90;;;;;;6193817;23;20222;-80
2021/04/10 02:51:31;;;;;;;2.20;1.77;;;11.90;45.30;;;;;;6194743;23;20565;-81
2021/04/10 02:54:00;;;;;;;4.20;1.65;;;11.80;45.90;;;;;;6193104;23;20202;-80
2021/04/10 02:56:29;;;;;;;7.43;2.10;;;11.70;46.70;;;;;;6191203;23;20183;-80
2021/04/10 02:58:59;;;;;;;3.95;1.73;;;11.70;46.60;;;;;;6189356;23;20237;-80
2021/04/10 03:01:26;;;;;;;1.92;1.83;;;11.70;47.20;;;;;;6191061;23;20237;-80
2021/04/10 03:03:52;;;;;;;2.53;1.92;;;11.60;47.50;;;;;;6203916;23;20186;-79
2021/04/10 03:06:19;;;;;;;1.73;1.60;;;11.60;47.50;;;;;;6210322;23;20202;-79
2021/04/10 03:08:47;;;;;;;2.00;1.80;;;11.60;47.40;;;;;;6210145;23;20199;-80
2021/04/10 03:11:16;;;;;;;2.10;1.70;;;11.60;47.10;;;;;;6210253;23;20182;-80
2021/04/10 03:13:43;;;;;;;2.00;1.80;;;11.60;47.20;;;;;;6208773;23;20199;-79
2021/04/10 03:16:10;;;;;;;3.10;1.70;;;11.60;47.40;;;;;;6202493;23;20230;-80
2021/04/10 03:18:38;;;;;;;3.67;2.10;;;11.60;47.50;;;;;;6201450;23;20210;-80
2021/04/10 03:21:05;;;;;;;2.75;1.85;;;11.50;47.90;;;;;;6195715;23;20179;-79
2021/04/10 03:23:31;;;;;;;4.15;1.83;;;11.50;48.20;;;;;;6199133;23;20195;-80
2021/04/10 03:26:00;;;;;;;2.72;1.65;;;11.50;48.60;;;;;;6201378;23;20225;-79
2021/04/10 03:28:29;;;;;;;1.75;1.60;;;11.40;49.00;;;;;;6202154;23;20203;-80
2021/04/10 03:31:01;;;;;;;3.67;1.70;;;11.40;49.40;;;;;;6192112;23;20175;-80
2021/04/10 03:33:29;;;;;;;5.45;1.80;;;11.40;49.40;;;;;;6188096;23;20179;-79
2021/04/10 03:35:56;;;;;;;4.13;1.70;;;11.40;50.20;;;;;;6188449;23;20176;-80
2021/04/10 03:38:23;;;;;;;3.33;1.73;;;11.30;50.50;;;;;;6190373;23;20345;-79
2021/04/10 03:40:49;;;;;;;1.85;1.52;;;11.30;50.50;;;;;;6192281;23;20175;-80
2021/04/10 03:43:16;;;;;;;2.75;2.08;;;11.30;50.50;;;;;;6196571;23;20179;-79
2021/04/10 03:45:43;;;;;;;5.00;1.75;;;11.30;49.30;;;;;;6194074;23;20203;-79
2021/04/10 03:48:11;;;;;;;2.20;2.00;;;11.30;49.50;;;;;;6191827;23;20203;-79
2021/04/10 03:50:37;;;;;;;5.88;2.10;;;11.30;48.00;;;;;;6191616;23;20179;-80
2021/04/10 03:53:04;;;;;;;5.15;1.90;;;11.30;47.80;;;;;;6193800;23;20179;-80
2021/04/10 03:55:30;;;;;;;2.20;1.70;;;11.30;47.80;;;;;;6205152;23;20190;-80
2021/04/10 03:57:59;;;;;;;3.33;1.50;;;11.30;47.40;;;;;;6200395;23;20681;-80
2021/04/10 04:00:26;;;;;;;2.15;1.40;;;11.30;47.90;;;;;;6209617;23;20175;-80
2021/04/10 04:02:54;;;;;;;1.95;1.55;;;11.40;47.50;;;;;;6208641;23;20582;-80
2021/04/10 04:05:21;;;;;;;1.75;1.33;;;11.40;47.60;;;;;;6191323;23;20187;-80
2021/04/10 04:07:47;;;;;;;4.60;1.83;;;11.40;47.10;;;;;;6189955;23;20203;-80
2021/04/10 04:10:14;;;;;;;2.63;1.48;;;11.40;47.00;;;;;;6189393;23;20175;-79
2021/04/10 04:12:40;;;;;;;2.95;1.35;;;11.30;46.10;;;;;;6188156;23;20252;-80
2021/04/10 04:15:08;;;;;;;1.17;1.08;;;11.30;45.60;;;;;;6199253;23;20183;-79
2021/04/10 04:17:34;;;;;;;3.10;1.48;;;11.40;45.80;;;;;;6188630;23;20197;-80
2021/04/10 04:20:02;;;;;;;1.35;1.25;;;11.40;45.70;;;;;;6193533;23;20207;-80
2021/04/10 04:22:28;;;;;;;2.85;1.20;;;11.30;45.60;;;;;;6194856;23;20249;-80
2021/04/10 04:24:54;;;;;;;3.92;1.50;;;11.30;45.40;;;;;;6196467;23;20183;-80
2021/04/10 04:27:21;;;;;;;2.63;1.67;;;11.30;45.60;;;;;;6190636;23;20199;-80
2021/04/10 04:29:47;;;;;;;2.08;1.50;;;11.30;45.60;;;;;;6190286;23;20248;-81
2021/04/10 04:32:14;;;;;;;1.75;1.30;;;11.30;46.60;;;;;;6189701;23;20211;-80
2021/04/10 04:34:40;;;;;;;2.70;1.50;;;11.20;46.00;;;;;;6196467;23;20259;-80
2021/04/10 04:37:07;;;;;;;2.20;1.45;;;11.20;45.80;;;;;;6210739;23;20159;-80
2021/04/10 04:39:34;;;;;;;3.05;1.45;;;11.20;45.90;;;;;;6194071;23;20338;-80
2021/04/10 04:42:01;;;;;;;1.50;1.17;;;11.20;45.50;;;;;;6190232;23;20645;-80
2021/04/10 04:44:27;;;;;;;1.42;1.10;;;11.20;45.00;;;;;;6191550;23;20222;-80
2021/04/10 04:46:54;;;;;;;1.38;1.30;;;11.10;44.60;;;;;;6209332;23;20258;-80
2021/04/10 04:49:20;;;;;;;3.67;1.70;;;11.10;44.60;;;;;;6209660;23;20199;-79
2021/04/10 04:51:47;;;;;;;3.83;1.58;;;11.10;44.60;;;;;;6209241;23;20191;-80
2021/04/10 04:54:14;;;;;;;2.92;1.10;;;11.10;44.20;;;;;;6197889;23;20191;-80
2021/04/10 04:56:40;;;;;;;4.05;1.50;;;11.10;44.60;;;;;;6198002;23;20175;-79
2021/04/10 04:59:07;;;;;;;1.50;1.40;;;11.10;44.50;;;;;;6197770;23;20222;-80
2021/04/10 05:01:33;;;;;;;3.60;1.38;;;11.10;44.70;;;;;;6200286;23;20175;-80
2021/04/10 05:03:59;;;;;;;1.30;1.20;;;11.10;44.60;;;;;;6195431;23;20183;-79
2021/04/10 05:06:26;;;;;;;2.00;1.45;;;11.10;44.30;;;;;;6194630;23;20243;-79
2021/04/10 05:08:52;;;;;;;2.83;1.48;;;11.10;44.40;;;;;;6209063;23;20207;-79
2021/04/10 05:11:19;;;;;;;2.85;1.80;;;11.10;44.80;;;;;;6208542;23;20167;-80
2021/04/10 05:13:46;;;;;;;5.78;1.67;;;11.10;44.10;;;;;;6208875;23;20174;-80
2021/04/10 05:16:12;;;;;;;2.05;1.30;;;11.10;44.50;;;;;;6207920;23;20261;-80
2021/04/10 05:18:39;;;;;;;3.67;1.58;;;11.00;44.00;;;;;;6193202;23;20577;-80
2021/04/10 05:21:06;;;;;;;3.78;2.22;;;11.10;44.20;;;;;;6189602;23;20183;-80
2021/04/10 05:23:32;;;;;;;2.17;1.35;;;11.10;44.00;;;;;;6193512;23;20186;-80
2021/04/10 05:25:58;;;;;;;5.93;1.63;;;11.10;43.90;;;;;;6194342;23;20199;-80
2021/04/10 05:28:26;;;;;;;3.85;1.60;;;11.10;44.20;;;;;;6195005;23;20282;-82
2021/04/10 05:30:53;;;;;;;1.60;1.50;;;11.10;43.70;;;;;;6188397;23;20187;-81
2021/04/10 05:33:19;;;;;;;3.25;1.75;;;11.10;43.50;;;;;;6187883;23;20175;-80
2021/04/10 05:35:46;;;;;;;3.45;1.65;;;11.10;43.30;;;;;;6196962;23;20190;-80
2021/04/10 05:38:12;;;;;;;4.10;1.25;;;11.10;43.30;;;;;;6190234;23;20234;-79
2021/04/10 05:40:39;;;;;;;1.30;1.20;;;11.10;43.40;;;;;;6190721;23;20183;-80
2021/04/10 05:43:05;;;;;;;1.85;1.40;;;11.10;43.20;;;;;;6190846;23;20521;-80
2021/04/10 05:45:33;;;;;;;1.58;1.42;;;11.10;42.90;;;;;;6191332;23;20459;-80
2021/04/10 05:47:59;;;;;;;1.95;1.25;;;11.20;43.00;;;;;;6190641;23;20534;-80
2021/04/10 05:50:25;;;;;;;1.95;1.20;;;11.20;42.80;;;;;;6196589;23;20335;-80
2021/04/10 05:52:52;;;;;;;2.22;1.30;;;11.20;43.10;;;;;;6202320;23;20264;-80
2021/04/10 05:55:18;;;;;;;2.88;1.58;;;11.10;42.80;;;;;;6200719;23;20215;-80
2021/04/10 05:57:45;;;;;;;2.03;1.50;;;11.20;42.90;;;;;;6193239;23;20187;-80
2021/04/10 06:00:12;;;;;;;2.40;1.33;;;11.20;42.90;;;;;;6198790;23;20160;-80
2021/04/10 06:02:40;;;;;;;4.18;1.40;;;11.10;42.60;;;;;;6205224;23;20256;-80
2021/04/10 06:05:07;;;;;;;2.60;1.45;;;11.10;42.90;;;;;;6208876;23;20168;-80
2021/04/10 06:07:34;;;;;;;2.25;1.17;;;11.20;42.30;;;;;;6201582;23;20370;-80
2021/04/10 06:10:00;;;;;;;2.85;1.38;;;11.10;42.70;;;;;;6194646;23;20183;-81
2021/04/10 06:12:27;;;;;;;2.35;1.50;;;11.10;42.80;;;;;;6197141;23;20180;-80
2021/04/10 06:14:53;;;;;;;4.53;1.60;;;11.20;43.10;;;;;;6202195;23;20187;-80
2021/04/10 06:17:20;;;;;;;1.70;1.50;;;11.20;42.30;;;;;;6208234;23;20179;-80
2021/04/10 06:19:47;;;;;;;1.50;1.40;;;11.30;42.50;;;;;;6209913;23;20213;-80
2021/04/10 06:22:14;;;;;;;2.25;1.13;;;11.30;41.70;;;;;;6211357;23;20159;-82
2021/04/10 06:24:40;;;;;;;4.63;1.42;;;11.30;41.30;;;;;;6211874;23;20167;-80
2021/04/10 06:27:07;;;;;;;3.05;1.92;;;11.40;40.80;;;;;;6207118;23;20234;-81
2021/04/10 06:29:33;;;;;;;2.45;1.65;;;11.40;40.80;;;;;;6207720;23;20210;-80
2021/04/10 06:31:59;;;;;;;1.60;1.50;;;11.60;41.00;;;;;;6211023;23;20155;-81
2021/04/10 06:34:26;;;;;;;2.63;1.40;;;11.60;41.00;;;;;;6210233;23;20182;-83
2021/04/10 06:36:53;;;;;;;3.67;1.20;;;11.70;41.00;;;;;;6207147;23;20183;-82
2021/04/10 06:39:21;;;;;;;2.60;1.50;;;11.70;40.00;;;;;;6208030;23;20226;-81
2021/04/10 06:41:47;;;;;;;1.20;1.00;;;11.80;39.70;;;;;;6199885;23;20175;-80
2021/04/10 06:44:14;;;;;;;3.90;1.65;;;11.70;39.40;;;;;;6192075;23;20183;-79
2021/04/10 06:46:41;;;;;;;3.10;1.30;;;11.80;39.20;;;;;;6186643;23;20529;-81
2021/04/10 06:49:09;;;;;;;1.90;1.20;;;11.80;39.20;;;;;;6184404;23;20202;-79
2021/04/10 06:51:38;;;;;;;2.08;1.30;;;11.80;39.50;;;;;;6186287;23;20260;-79
2021/04/10 06:54:08;;;;;;;1.30;1.20;;;11.70;39.70;;;;;;6186675;23;20351;-80
2021/04/10 06:56:38;;;;;;;1.88;1.38;;;11.60;39.80;;;;;;6189203;23;20187;-81
2021/04/10 06:59:10;;;;;;;2.35;1.20;;;11.60;40.20;;;;;;6165227;23;673574;-82
2021/04/10 07:01:37;;;;;;;1.25;1.15;;;11.50;40.50;;;;;;6198195;23;20182;-82
2021/04/10 07:04:04;;;;;;;2.22;1.45;;;11.50;40.90;;;;;;6199890;23;20238;-79
2021/04/10 07:06:31;;;;;;;1.92;1.42;;;11.40;40.80;;;;;;6192624;23;20610;-80
2021/04/10 07:08:58;;;;;;;3.22;1.65;;;11.40;40.80;;;;;;6191560;23;20226;-81
2021/04/10 07:11:26;;;;;;;3.47;1.38;;;11.40;40.80;;;;;;6192926;23;20199;-79
2021/04/10 07:13:52;;;;;;;2.53;1.60;;;11.40;41.50;;;;;;6191078;23;20183;-82
2021/04/10 07:16:19;;;;;;;1.60;1.50;;;11.40;40.80;;;;;;6190843;23;20250;-80
2021/04/10 07:18:46;;;;;;;2.60;1.88;;;11.40;40.80;;;;;;6193446;23;20277;-80
2021/04/10 07:21:15;;;;;;;5.45;1.40;;;11.40;40.80;;;;;;6191482;23;20186;-80
2021/04/10 07:23:46;;;;;;;3.05;1.60;;;11.40;40.80;;;;;;6188541;23;20183;-80
2021/04/10 07:26:14;;;;;;;2.67;1.60;;;11.40;40.80;;;;;;6190326;23;20234;-80
2021/04/10 07:28:42;;;;;;;2.35;1.40;;;11.40;40.80;;;;;;6194368;23;20203;-81
2021/04/10 07:31:09;;;;;;;1.05;0.95;;;11.40;40.80;;;;;;6193388;23;20198;-78
2021/04/10 07:33:37;;;;;;;2.30;1.48;;;11.40;40.80;;;;;;6188761;23;20247;-80
2021/04/10 07:36:05;;;;;;;1.33;1.13;;;11.40;40.80;;;;;;6204963;23;20190;-79
2021/04/10 07:38:33;;;;;;;3.80;2.00;;;11.40;40.80;;;;;;6205626;23;20187;-80
2021/04/10 07:41:03;;;;;;;2.95;1.50;;;11.40;40.80;;;;;;6198311;23;20183;-79
2021/04/10 07:43:31;;;;;;;2.55;1.30;;;11.40;40.80;;;;;;6193136;23;20202;-81
2021/04/10 07:46:21;;;;;;;2.55;1.63;;;11.50;40.90;;;;;;6184820;23;20303;-79
2021/04/10 07:49:03;;;;;;;1.30;1.20;;;11.60;41.00;;;;;;6162225;23;20251;-80
2021/04/10 07:51:31;;;;;;;2.40;1.35;;;11.70;40.50;;;;;;6169897;23;20183;-79
2021/04/10 07:53:58;;;;;;;2.80;1.30;;;11.70;40.50;;;;;;6172734;23;20210;-80
2021/04/10 07:56:25;;;;;;;2.45;1.30;;;11.80;40.40;;;;;;6170007;23;20238;-81
2021/04/10 07:58:51;;;;;;;2.20;1.25;;;11.90;39.80;;;;;;6179519;23;20215;-79
2021/04/10 08:01:18;;;;;;;2.42;1.60;;;11.90;39.60;;;;;;6198668;23;20226;-79
2021/04/10 08:03:47;;;;;;;3.58;1.40;;;12.00;39.60;;;;;;6198849;23;20179;-81
2021/04/10 08:06:19;;;;;;;1.50;1.40;;;12.10;39.40;;;;;;6205645;23;20198;-84
2021/04/10 08:08:54;;;;;;;3.40;1.40;;;12.20;39.30;;;;;;6209594;23;20187;-81
2021/04/10 08:11:36;;;;;;;1.83;1.25;;;12.30;39.00;;;;;;6209182;23;20183;-81
2021/04/10 08:14:06;;;;;;;2.50;1.25;;;12.10;39.40;;;;;;6210079;23;20206;-81
2021/04/10 08:16:38;;;;;;;4.32;1.23;;;12.10;39.70;;;;;;6205875;23;20175;-81
2021/04/10 08:19:05;;;;;;;4.00;1.50;;;12.30;38.90;;;;;;6200259;23;20249;-79
2021/04/10 08:21:42;;;;;;;2.88;1.40;;;12.50;39.10;;;;;;6198933;23;20509;-79
2021/04/10 08:24:29;;;;;;;2.67;1.30;;;12.60;38.20;;;;;;6207862;23;20163;-80
2021/04/10 08:26:57;;;;;;;1.48;1.38;;;12.70;38.00;;;;;;6196039;23;20281;-79
2021/04/10 08:29:26;;;;;;;2.70;1.50;;;12.70;38.20;;;;;;6190403;23;20210;-82
2021/04/10 08:31:54;;;;;;;2.40;1.50;;;12.90;37.80;;;;;;6194391;23;20214;-81
2021/04/10 08:34:21;;;;;;;1.65;1.55;;;13.00;37.60;;;;;;6198655;23;20192;-80
2021/04/10 08:36:54;;;;;;;1.20;1.10;;;12.90;37.60;;;;;;6197775;23;20176;-80
2021/04/10 08:39:24;;;;;;;1.83;1.35;;;12.90;38.20;;;;;;6204733;23;20187;-80
2021/04/10 08:41:55;;;;;;;3.63;1.30;;;12.90;38.00;;;;;;6201263;23;20167;-80
2021/04/10 08:44:25;;;;;;;1.63;1.35;;;13.00;38.40;;;;;;6207595;23;20223;-81
2021/04/10 08:46:53;;;;;;;0.90;0.90;;;13.20;37.60;;;;;;6202796;23;20313;-78
2021/04/10 08:49:20;;;;;;;1.25;1.15;;;12.90;38.00;;;;;;6188385;23;20210;-80
2021/04/10 08:51:52;;;;;;;3.35;2.38;;;13.00;37.70;;;;;;6188869;23;20300;-80
2021/04/10 08:54:20;;;;;;;1.40;1.30;;;12.90;38.10;;;;;;6191196;23;20175;-80
2021/04/10 08:56:49;;;;;;;1.27;1.17;;;12.80;38.00;;;;;;6188910;23;20179;-80
2021/04/10 08:59:17;;;;;;;2.75;1.50;;;12.80;38.60;;;;;;6193044;23;20218;-79
2021/04/10 09:02:04;;;;;;;1.88;1.20;;;12.80;38.30;;;;;;6193546;23;20187;-78
2021/04/10 09:04:56;;;;;;;4.13;1.30;;;12.70;38.40;;;;;;6196380;23;20167;-78
2021/04/10 09:08:07;;;;;;;3.55;1.42;;;12.80;38.70;;;;;;6197314;23;20264;-80
2021/04/10 09:10:53;;;;;;;1.60;1.50;;;12.90;38.10;;;;;;6195908;23;20187;-79
2021/04/10 09:13:31;;;;;;;1.85;1.25;;;12.80;38.30;;;;;;6201184;23;20210;-80
2021/04/10 09:16:27;;;;;;;2.15;1.20;;;13.00;38.20;;;;;;6202757;23;20182;-80
2021/04/10 09:18:55;;;;;;;1.40;1.30;;;12.90;38.20;;;;;;6195824;23;20204;-81
2021/04/10 09:21:38;;;;;;;1.83;1.25;;;13.00;38.10;;;;;;6194075;23;20241;-82
2021/04/10 09:24:35;;;;;;;3.33;1.20;;;12.90;37.90;;;;;;6199037;23;20198;-80
2021/04/10 09:27:08;;;;;;;2.45;1.40;;;13.00;38.30;;;;;;6187603;22;20225;-79
2021/04/10 09:29:49;;;;;;;3.25;1.15;;;12.90;38.10;;;;;;6255789;23;20189;-79
2021/04/10 09:32:32;;;;;;;2.78;1.20;;;13.00;37.90;;;;;;6254485;23;20173;-79
2021/04/10 09:35:00;;;;;;;1.90;1.70;;;13.20;37.70;;;;;;6250314;23;20247;-80
2021/04/10 09:38:01;;;;;;;3.55;1.17;;;13.10;37.40;;;;;;6262940;23;20200;-79
2021/04/10 09:40:50;;;;;;;1.80;1.48;;;13.00;37.40;;;;;;6262568;23;20178;-78
2021/04/10 09:43:22;;;;;;;1.00;1.00;;;12.90;37.40;;;;;;6267548;23;20319;-79
2021/04/10 09:45:50;;;;;;;1.95;1.15;;;13.00;37.30;;;;;;6267020;22;20230;-78
2021/04/10 09:48:21;;;;;;;2.47;1.20;;;13.00;36.80;;;;;;6261989;22;20194;-78
2021/04/10 09:51:15;;;;;;;1.85;1.23;;;12.80;37.10;;;;;;6263595;23;20241;-80
2021/04/10 09:53:50;;;;;;;2.70;0.93;;;12.80;38.30;;;;;;6259052;23;20178;-79
2021/04/10 09:56:17;;;;;;;1.88;0.95;;;12.90;37.50;;;;;;6261470;23;20584;-80
2021/04/10 09:58:52;;;;;;;2.17;1.10;;;12.90;37.20;;;;;;6256911;22;20247;-79
2021/04/10 10:01:21;;;;;;;4.38;1.15;;;13.00;37.20;;;;;;6260892;23;20173;-76
2021/04/10 10:03:49;;;;;;;2.25;1.30;;;13.20;37.00;;;;;;6253344;23;20213;-78
2021/04/10 10:06:31;;;;;;;1.60;1.20;;;13.20;36.70;;;;;;6253197;23;20194;-81
2021/04/10 10:08:58;;;;;;;1.33;1.15;;;13.30;36.40;;;;;;6255715;22;20204;-82
2021/04/10 10:11:25;;;;;;;2.55;1.10;;;13.30;36.10;;;;;;6261556;22;20170;-80
2021/04/10 10:13:56;;;;;;;1.27;1.15;;;13.30;36.00;;;;;;6269461;23;20193;-81
2021/04/10 10:16:30;;;;;;;1.85;0.95;;;13.30;36.20;;;;;;6257198;23;20162;-80
2021/04/10 10:18:57;;;;;;;1.20;1.10;;;13.30;35.90;;;;;;6250110;22;20200;-78
2021/04/10 10:21:24;;;;;;;0.77;0.77;;;13.40;35.80;;;;;;6247068;23;20235;-77
2021/04/10 10:23:53;;;;;;;1.30;1.20;;;13.40;35.60;;;;;;6252536;23;20205;-80
2021/04/10 10:26:21;;;;;;;1.48;1.20;;;13.30;36.00;;;;;;6269209;22;20202;-80
2021/04/10 10:28:50;;;;;;;1.20;1.10;;;13.40;36.00;;;;;;6269873;22;20194;-81
2021/04/10 10:31:18;;;;;;;1.35;0.93;;;13.60;35.70;;;;;;6269762;23;20170;-80
2021/04/10 10:33:44;;;;;;;2.83;1.20;;;13.50;35.80;;;;;;6252266;23;20189;-78
2021/04/10 10:36:12;;;;;;;1.10;1.05;;;13.50;35.90;;;;;;6250631;23;20512;-79
2021/04/10 10:38:40;;;;;;;3.85;1.13;;;13.50;35.80;;;;;;6251570;22;20210;-79
2021/04/10 10:41:08;;;;;;;0.95;0.95;;;13.60;35.60;;;;;;6253794;23;20182;-80
2021/04/10 10:43:39;;;;;;;1.45;1.35;;;13.50;35.80;;;;;;6251305;23;20612;-81
2021/04/10 10:46:06;;;;;;;0.98;0.98;;;13.60;36.10;;;;;;6254798;23;20168;-79
2021/04/10 10:48:34;;;;;;;1.15;1.05;;;13.60;35.70;;;;;;6250082;22;20306;-79
2021/04/10 10:51:07;;;;;;;1.77;1.00;;;13.50;35.80;;;;;;6250559;23;20233;-79
2021/04/10 10:53:35;;;;;;;2.80;1.20;;;13.60;35.70;;;;;;6250579;23;20173;-79
2021/04/10 10:56:07;;;;;;;0.98;0.93;;;13.60;35.20;;;;;;6251647;23;20185;-78
2021/04/10 10:58:37;;;;;;;1.50;1.05;;;13.80;35.10;;;;;;6257523;22;20687;-79
2021/04/10 11:01:15;;;;;;;1.40;1.30;;;13.90;35.20;;;;;;6264019;23;20192;-78
2021/04/10 11:03:54;;;;;;;1.77;1.20;;;14.00;35.00;;;;;;6265448;23;20170;-78
2021/04/10 11:06:23;;;;;;;2.17;1.25;;;14.20;34.40;;;;;;6271526;23;20182;-79
2021/04/10 11:08:50;;;;;;;2.00;1.30;;;14.20;33.90;;;;;;6272321;22;20193;-78
2021/04/10 11:11:19;;;;;;;1.80;1.10;;;14.30;33.90;;;;;;6265199;23;20193;-81
2021/04/10 11:13:48;;;;;;;1.40;1.17;;;14.50;34.40;;;;;;6263225;23;20415;-80
2021/04/10 11:16:16;;;;;;;1.10;1.00;;;14.50;33.60;;;;;;6264443;23;20193;-77
2021/04/10 11:18:44;;;;;;;0.87;0.87;;;14.70;33.20;;;;;;6267953;22;20420;-77
2021/04/10 11:21:21;;;;;;;1.02;0.85;;;15.00;32.30;;;;;;6267500;23;20944;-79
2021/04/10 11:24:10;;;;;;;0.93;0.90;;;15.10;31.90;;;;;;6263854;23;20555;-77
2021/04/10 11:26:42;;;;;;;1.93;0.90;;;15.50;30.50;;;;;;6253284;23;20407;-76
2021/04/10 11:29:18;;;;;;;1.20;1.00;;;15.70;29.80;;;;;;6249671;22;20411;-79
2021/04/10 11:31:44;;;;;;;2.73;1.30;;;15.70;29.80;;;;;;6252251;23;20364;-78
2021/04/10 11:34:39;;;;;;;2.47;1.07;;;15.90;29.90;;;;;;6256298;23;20412;-78
2021/04/10 11:37:07;;;;;;;3.47;1.10;;;16.40;29.10;;;;;;6195419;23;20403;-77
2021/04/10 11:39:48;;;;;;;0.80;0.80;;;16.90;28.00;;;;;;6246471;22;20421;-76
2021/04/10 11:42:29;;;;;;;0.97;0.87;;;17.40;27.00;;;;;;6246696;23;20543;-77
2021/04/10 11:44:59;;;;;;;1.47;1.00;;;17.60;25.10;;;;;;6246230;23;20406;-79
2021/04/10 11:47:27;;;;;;;1.97;0.90;;;17.30;25.40;;;;;;6248944;23;20441;-76
2021/04/10 11:49:53;;;;;;;3.40;1.13;;;17.30;23.40;;;;;;6247528;22;20414;-77
2021/04/10 11:52:24;;;;;;;1.50;0.97;;;17.60;23.10;;;;;;6246519;23;20399;-77
2021/04/10 11:55:05;;;;;;;1.03;0.90;;;17.60;22.90;;;;;;6251732;23;20374;-79
2021/04/10 11:57:33;;;;;;;0.83;0.80;;;17.40;23.30;;;;;;6253036;22;20388;-79
2021/04/10 12:00:06;;;;;;;1.67;0.80;;;17.50;23.00;;;;;;6252456;23;20734;-79
2021/04/10 12:02:37;;;;;;;1.33;0.70;;;17.70;23.20;;;;;;6250658;23;20371;-79
2021/04/10 12:05:23;;;;;;;2.97;1.10;;;17.70;22.60;;;;;;6246994;23;20375;-77
2021/04/10 12:08:10;;;;;;;1.30;1.20;;;17.60;23.10;;;;;;6258319;22;20448;-80
2021/04/10 12:10:38;;;;;;;1.07;0.97;;;17.30;23.70;;;;;;6269905;22;20441;-77
2021/04/10 12:13:04;;;;;;;1.00;0.90;;;17.40;23.70;;;;;;6267884;22;20711;-81
2021/04/10 12:15:33;;;;;;;1.23;1.03;;;17.70;23.30;;;;;;6272114;22;20413;-81
2021/04/10 12:18:00;;;;;;;1.20;1.10;;;17.80;23.30;;;;;;6255118;22;20451;-79
2021/04/10 12:20:26;;;;;;;1.10;0.80;;;17.70;23.60;;;;;;6259450;23;20367;-81
2021/04/10 12:22:53;;;;;;;1.20;1.10;;;17.90;23.80;;;;;;6253464;23;20400;-76
2021/04/10 12:25:20;;;;;;;1.70;1.00;;;18.00;22.80;;;;;;6247723;23;20472;-75
2021/04/10 12:27:46;;;;;;;0.80;0.80;;;17.80;22.90;;;;;;6247413;22;20440;-74
2021/04/10 12:30:14;;;;;;;1.00;1.00;;;17.70;22.70;;;;;;6246660;23;20470;-76
2021/04/10 12:32:42;;;;;;;3.70;1.03;;;17.60;22.70;;;;;;6247105;23;20480;-74
2021/04/10 12:35:09;;;;;;;2.73;1.17;;;17.60;22.80;;;;;;6254771;23;20412;-76
2021/04/10 12:37:35;;;;;;;2.03;0.90;;;17.70;21.40;;;;;;6245873;22;20501;-75
2021/04/10 12:40:03;;;;;;;2.30;1.00;;;17.30;20.90;;;;;;6245273;23;20465;-76
2021/04/10 12:42:29;;;;;;;1.63;1.13;;;17.10;20.60;;;;;;6245577;23;20444;-78
2021/04/10 12:44:56;;;;;;;2.13;1.07;;;16.90;20.70;;;;;;6249498;23;20417;-76
2021/04/10 12:47:22;;;;;;;1.23;1.13;;;16.70;21.00;;;;;;6244882;23;20734;-75
2021/04/10 12:49:49;;;;;;;1.47;1.23;;;16.40;21.40;;;;;;6249645;22;20436;-78
2021/04/10 12:52:16;;;;;;;2.60;1.33;;;16.30;21.90;;;;;;6246664;23;20865;-78
2021/04/10 12:54:44;;;;;;;2.10;1.93;;;16.30;21.80;;;;;;6247521;23;20408;-77
2021/04/10 12:57:11;;;;;;;2.53;2.33;;;16.50;21.80;;;;;;6250395;23;20433;-79
2021/04/10 12:59:38;;;;;;;3.20;2.33;;;16.80;21.40;;;;;;6254440;22;20563;-79
2021/04/10 13:02:05;;;;;;;1.67;1.17;;;17.00;21.30;;;;;;6260051;23;20759;-76